createdAt,value
2019-04-26T00:02:29.902Z,5.07
2019-04-26T00:05:01.564Z,5.53
2019-04-26T00:07:33.489Z,5.00
2019-04-26T00:10:10.509Z,3.47
2019-04-26T00:12:56.303Z,3.00
2019-04-26T00:15:49.933Z,5.50
2019-04-26T00:18:21.688Z,4.37
2019-04-26T00:20:53.304Z,3.57
2019-04-26T00:23:24.904Z,2.90
2019-04-26T00:25:56.773Z,3.50
2019-04-26T00:28:28.449Z,3.40
2019-04-26T00:31:00.041Z,3.67
2019-04-26T00:33:31.669Z,2.90
2019-04-26T00:36:03.274Z,2.50
2019-04-26T00:38:35.028Z,2.97
2019-04-26T00:41:06.772Z,2.90
2019-04-26T00:43:38.588Z,2.80
2019-04-26T00:46:13.245Z,2.57
2019-04-26T00:48:45.635Z,2.50
2019-04-26T00:51:19.241Z,2.73
2019-04-26T00:53:51.711Z,3.00
2019-04-26T00:56:24.622Z,3.30
2019-04-26T00:58:56.855Z,2.97
2019-04-26T01:01:30.107Z,3.53
2019-04-26T01:04:01.686Z,2.57
2019-04-26T01:06:34.959Z,3.13
2019-04-26T01:09:08.971Z,2.50
2019-04-26T01:11:42.319Z,2.60
2019-04-26T01:14:15.491Z,2.40
2019-04-26T01:16:48.151Z,2.43
2019-04-26T01:19:20.952Z,2.23
2019-04-26T01:21:57.137Z,3.17
2019-04-26T01:24:32.271Z,4.10
2019-04-26T01:27:05.596Z,2.53
2019-04-26T01:29:39.102Z,2.70
2019-04-26T01:32:13.099Z,3.10
2019-04-26T01:34:47.976Z,4.20
2019-04-26T01:37:20.595Z,2.97
2019-04-26T01:39:58.170Z,3.40
2019-04-26T01:42:54.736Z,3.10
2019-04-26T01:45:37.080Z,2.70
2019-04-26T01:48:35.075Z,3.10
2019-04-26T01:51:07.537Z,3.00
2019-04-26T01:53:39.538Z,2.67
2019-04-26T01:56:11.142Z,3.30
2019-04-26T01:58:42.833Z,3.43
2019-04-26T02:01:27.674Z,3.70
2019-04-26T02:03:59.756Z,2.90
2019-04-26T02:06:34.902Z,2.90
2019-04-26T02:09:07.824Z,2.70
2019-04-26T02:11:40.328Z,3.17
2019-04-26T02:14:12.530Z,3.47
2019-04-26T02:16:48.413Z,3.00
2019-04-26T02:19:20.408Z,3.70
2019-04-26T02:22:01.079Z,2.30
2019-04-26T02:24:36.563Z,2.90
2019-04-26T02:27:17.270Z,3.53
2019-04-26T02:29:48.862Z,3.23
2019-04-26T02:32:20.928Z,3.20
2019-04-26T02:34:52.609Z,3.17
2019-04-26T02:37:24.169Z,2.53
2019-04-26T02:39:57.147Z,7.90
2019-04-26T02:42:51.306Z,2.90
2019-04-26T02:46:03.647Z,2.70
2019-04-26T02:49:13.530Z,3.63
2019-04-26T02:51:57.627Z,7.13
2019-04-26T02:54:47.455Z,3.03
2019-04-26T02:57:40.908Z,3.43
2019-04-26T03:00:15.040Z,3.80
2019-04-26T03:02:54.145Z,5.47
2019-04-26T03:05:26.210Z,3.33
2019-04-26T03:08:16.731Z,3.00
2019-04-26T03:11:06.114Z,3.57
2019-04-26T03:13:58.321Z,3.10
2019-04-26T03:17:06.494Z,2.67
2019-04-26T03:20:00.675Z,2.83
2019-04-26T03:23:14.541Z,4.30
2019-04-26T03:26:43.360Z,3.80
2019-04-26T03:30:20.060Z,3.50
2019-04-26T03:33:23.522Z,4.73
2019-04-26T03:36:27.752Z,3.10
2019-04-26T03:39:42.929Z,3.43
2019-04-26T03:42:59.584Z,3.83
2019-04-26T03:46:37.733Z,3.30
2019-04-26T03:50:08.585Z,3.03
2019-04-26T03:53:16.907Z,4.30
2019-04-26T03:56:43.652Z,3.67
2019-04-26T04:00:05.381Z,3.67
2019-04-26T04:03:10.537Z,3.10
2019-04-26T04:05:47.854Z,3.30
2019-04-26T04:08:27.539Z,5.17
2019-04-26T04:11:05.668Z,3.40
2019-04-26T04:14:15.032Z,4.93
2019-04-26T04:17:17.574Z,4.60
2019-04-26T04:20:49.090Z,4.37
2019-04-26T04:23:49.803Z,3.77
2019-04-26T04:27:06.284Z,3.40
2019-04-26T04:29:55.966Z,3.07
2019-04-26T04:32:49.664Z,4.70
2019-04-26T04:35:23.825Z,4.10
2019-04-26T04:38:09.493Z,4.83
2019-04-26T04:41:17.438Z,4.43
2019-04-26T04:44:08.875Z,4.20
2019-04-26T04:47:23.601Z,3.53
2019-04-26T04:50:07.765Z,5.00
2019-04-26T04:53:11.313Z,4.43
2019-04-26T04:56:28.655Z,3.70
2019-04-26T04:59:04.704Z,4.30
2019-04-26T05:02:22.161Z,3.50
2019-04-26T05:05:25.773Z,4.43
2019-04-26T05:08:45.458Z,4.63
2019-04-26T05:11:26.538Z,4.80
2019-04-26T05:14:18.365Z,6.93
2019-04-26T05:17:51.603Z,4.10
2019-04-26T05:20:37.343Z,5.33
2019-04-26T05:24:15.728Z,5.43
2019-04-26T05:27:40.799Z,4.93
2019-04-26T05:31:08.881Z,4.43
2019-04-26T05:34:10.798Z,8.03
2019-04-26T05:37:37.338Z,3.80
2019-04-26T05:40:57.798Z,4.70
2019-04-26T05:43:50.243Z,4.73
2019-04-26T05:47:30.659Z,5.67
2019-04-26T05:51:02.750Z,4.13
2019-04-26T05:54:33.994Z,4.80
2019-04-26T05:57:22.516Z,9.00
2019-04-26T06:00:55.747Z,5.90
2019-04-26T06:04:24.900Z,5.70
2019-04-26T06:07:40.929Z,9.53
2019-04-26T06:10:35.378Z,4.60
2019-04-26T06:14:08.487Z,5.97
2019-04-26T06:17:33.682Z,4.97
2019-04-26T06:20:41.182Z,3.10
2019-04-26T06:23:46.921Z,3.00
2019-04-26T06:27:14.138Z,2.70
2019-04-26T06:30:10.238Z,5.00
2019-04-26T06:33:15.536Z,2.83
2019-04-26T06:35:49.507Z,2.90
2019-04-26T06:39:09.671Z,3.70
2019-04-26T06:42:49.305Z,2.90
2019-04-26T06:46:22.055Z,2.53
2019-04-26T06:49:59.319Z,2.60
2019-04-26T06:52:35.251Z,3.83
2019-04-26T06:55:20.981Z,3.63
2019-04-26T06:58:23.712Z,2.40
2019-04-26T07:01:22.810Z,4.43
2019-04-26T07:04:59.170Z,3.80
2019-04-26T07:08:33.053Z,5.23
2019-04-26T07:12:21.051Z,5.43
2019-04-26T07:15:54.780Z,2.27
2019-04-26T07:19:24.459Z,2.20
2019-04-26T07:22:48.182Z,2.17
2019-04-26T07:26:20.263Z,2.30
2019-04-26T07:29:45.210Z,1.80
2019-04-26T07:32:53.692Z,1.77
2019-04-26T07:36:07.694Z,2.10
2019-04-26T07:39:25.717Z,1.90
2019-04-26T07:43:11.232Z,1.77
2019-04-26T07:46:31.782Z,1.60
2019-04-26T07:49:59.360Z,2.23
2019-04-26T07:53:09.268Z,2.10
2019-04-26T07:56:03.570Z,1.80
2019-04-26T08:00:02.812Z,2.23
2019-04-26T08:03:04.108Z,1.77
2019-04-26T08:06:28.786Z,2.37
2019-04-26T08:09:10.895Z,2.60
2019-04-26T08:11:51.317Z,2.97
2019-04-26T08:14:37.725Z,2.90
2019-04-26T08:17:39.570Z,4.37
2019-04-26T08:20:43.398Z,3.63
2019-04-26T08:23:37.893Z,3.80
2019-04-26T08:26:00.572Z,3.43
2019-04-26T08:28:36.755Z,4.53
2019-04-26T08:31:15.522Z,6.57
2019-04-26T08:33:54.603Z,3.50
2019-04-26T08:36:28.786Z,3.07
2019-04-26T08:39:04.697Z,5.53
2019-04-26T08:41:40.184Z,4.23
2019-04-26T08:44:25.500Z,3.50
2019-04-26T08:47:13.934Z,3.10
2019-04-26T08:50:01.268Z,3.40
2019-04-26T08:52:36.682Z,3.90
2019-04-26T08:55:10.817Z,4.17
2019-04-26T08:57:45.683Z,3.37
2019-04-26T09:00:33.771Z,3.80
2019-04-26T09:03:13.283Z,6.73
2019-04-26T09:06:09.070Z,3.37
2019-04-26T09:08:43.507Z,3.60
2019-04-26T09:11:26.071Z,3.20
2019-04-26T09:13:54.292Z,3.00
2019-04-26T09:16:25.961Z,3.70
2019-04-26T09:18:59.747Z,2.70
2019-04-26T09:21:41.678Z,2.90
2019-04-26T09:24:37.807Z,2.80
2019-04-26T09:27:37.415Z,3.13
2019-04-26T09:30:14.316Z,4.53
2019-04-26T09:33:04.828Z,2.83
2019-04-26T09:35:36.494Z,2.93
2019-04-26T09:38:08.092Z,4.17
2019-04-26T09:40:39.822Z,3.40
2019-04-26T09:43:39.116Z,3.63
2019-04-26T09:46:38.829Z,3.20
2019-04-26T09:49:32.099Z,3.60
2019-04-26T09:52:05.350Z,2.83
2019-04-26T09:54:36.940Z,3.70
2019-04-26T09:57:08.591Z,3.00
2019-04-26T09:59:41.196Z,3.57
2019-04-26T10:02:14.540Z,3.73
2019-04-26T10:04:46.134Z,3.00
2019-04-26T10:07:17.746Z,2.93
2019-04-26T10:09:51.730Z,4.20
2019-04-26T10:12:29.263Z,4.30
2019-04-26T10:15:17.110Z,3.20
2019-04-26T10:17:50.177Z,5.33
2019-04-26T10:20:21.898Z,2.53
2019-04-26T10:22:53.476Z,3.00
2019-04-26T10:25:25.094Z,3.60
2019-04-26T10:27:56.694Z,2.83
2019-04-26T10:30:28.286Z,2.90
2019-04-26T10:33:02.183Z,3.47
2019-04-26T10:35:33.648Z,3.00
2019-04-26T10:38:05.568Z,4.13
2019-04-26T10:40:37.166Z,2.80
2019-04-26T10:43:09.990Z,3.80
2019-04-26T10:45:41.687Z,3.37
2019-04-26T10:48:13.865Z,2.77
2019-04-26T10:50:46.572Z,3.83
2019-04-26T10:53:37.381Z,2.90
2019-04-26T10:56:41.409Z,2.50
2019-04-26T10:59:22.803Z,2.10
2019-04-26T11:01:54.511Z,3.00
2019-04-26T11:04:26.086Z,2.37
2019-04-26T11:06:58.097Z,3.80
2019-04-26T11:09:31.114Z,2.40
2019-04-26T11:12:05.055Z,2.77
2019-04-26T11:14:36.675Z,2.43
2019-04-26T11:17:11.599Z,2.53
2019-04-26T11:19:44.165Z,2.20
2019-04-26T11:22:15.421Z,2.97
2019-04-26T11:24:50.128Z,2.00
2019-04-26T11:27:20.235Z,2.37
2019-04-26T11:29:53.949Z,3.27
2019-04-26T11:32:25.193Z,2.10
2019-04-26T11:34:58.642Z,1.77
2019-04-26T11:37:30.054Z,2.33
2019-04-26T11:40:01.650Z,4.57
2019-04-26T11:42:34.957Z,2.30
2019-04-26T11:45:14.724Z,2.00
2019-04-26T11:47:55.415Z,3.13
2019-04-26T11:50:17.861Z,3.70
2019-04-26T11:52:49.617Z,3.70
2019-04-26T11:55:21.232Z,3.23
2019-04-26T11:57:52.823Z,2.87
2019-04-26T12:00:29.010Z,3.37
2019-04-26T12:03:00.603Z,10.17
2019-04-26T12:05:51.107Z,5.67
2019-04-26T12:08:26.785Z,4.50
2019-04-26T12:10:58.631Z,4.00
2019-04-26T12:13:30.228Z,4.40
2019-04-26T12:16:01.807Z,4.43
2019-04-26T12:18:33.437Z,4.73
2019-04-26T12:21:05.018Z,4.20
2019-04-26T12:23:36.614Z,4.50
2019-04-26T12:26:08.243Z,6.97
2019-04-26T12:28:41.300Z,4.50
2019-04-26T12:31:15.042Z,3.70
2019-04-26T12:33:46.267Z,3.30
2019-04-26T12:36:17.886Z,4.10
2019-04-26T12:38:49.480Z,3.80
2019-04-26T12:41:39.215Z,3.13
2019-04-26T12:43:58.943Z,3.30
2019-04-26T12:46:35.068Z,3.03
2019-04-26T12:49:06.688Z,3.40
2019-04-26T12:51:42.648Z,3.30
2019-04-26T12:54:11.949Z,3.13
2019-04-26T12:56:43.532Z,2.50
2019-04-26T12:59:15.911Z,2.70
2019-04-26T13:01:48.557Z,2.33
2019-04-26T13:04:20.581Z,2.87
2019-04-26T13:07:06.932Z,3.10
2019-04-26T13:09:37.652Z,2.00
2019-04-26T13:12:29.756Z,2.63
2019-04-26T13:16:00.553Z,2.10
2019-04-26T13:18:32.136Z,4.40
2019-04-26T13:21:04.373Z,2.30
2019-04-26T13:23:36.135Z,2.60
2019-04-26T13:26:07.935Z,3.27
2019-04-26T13:28:39.494Z,4.97
2019-04-26T13:31:11.106Z,2.50
2019-04-26T13:33:43.670Z,3.50
2019-04-26T13:36:15.257Z,4.07
2019-04-26T13:38:46.829Z,3.53
2019-04-26T13:41:18.429Z,3.43
2019-04-26T13:43:49.989Z,4.80
2019-04-26T13:46:39.071Z,4.80
2019-04-26T13:49:29.604Z,3.40
2019-04-26T13:52:01.265Z,6.00
2019-04-26T13:54:33.048Z,3.10
2019-04-26T13:57:06.179Z,3.30
2019-04-26T13:59:38.054Z,8.00
2019-04-26T14:02:11.806Z,3.70
2019-04-26T14:04:43.002Z,4.30
2019-04-26T14:07:14.590Z,3.37
2019-04-26T14:09:46.167Z,4.30
2019-04-26T14:12:18.986Z,3.57
2019-04-26T14:14:50.856Z,5.00
2019-04-26T14:17:25.995Z,2.87
2019-04-26T14:19:55.816Z,4.00
2019-04-26T14:22:32.265Z,2.80
2019-04-26T14:25:08.146Z,2.63
2019-04-26T14:27:49.820Z,2.70
2019-04-26T14:30:19.599Z,2.47
2019-04-26T14:32:53.313Z,3.20
2019-04-26T14:35:25.562Z,3.80
2019-04-26T14:37:57.161Z,2.50
2019-04-26T14:40:28.791Z,4.50
2019-04-26T14:43:07.014Z,3.50
2019-04-26T14:45:36.412Z,4.20
2019-04-26T14:48:19.909Z,3.30
2019-04-26T14:50:40.369Z,2.53
2019-04-26T14:53:13.089Z,3.40
2019-04-26T14:55:44.688Z,3.40
2019-04-26T14:58:16.319Z,3.60
2019-04-26T15:00:51.429Z,3.07
2019-04-26T15:03:46.031Z,3.30
2019-04-26T15:06:22.207Z,3.17
2019-04-26T15:08:53.970Z,4.30
2019-04-26T15:11:25.553Z,4.20
2019-04-26T15:13:57.179Z,2.97
2019-04-26T15:16:28.796Z,3.60
2019-04-26T15:19:00.379Z,2.90
2019-04-26T15:21:34.341Z,3.90
2019-04-26T15:24:06.077Z,3.80
2019-04-26T15:26:37.646Z,3.20
2019-04-26T15:29:09.209Z,3.10
2019-04-26T15:31:40.799Z,4.57
2019-04-26T15:34:12.367Z,2.70
2019-04-26T15:36:47.997Z,2.20
2019-04-26T15:39:26.994Z,3.00
2019-04-26T15:42:29.314Z,4.90
2019-04-26T15:45:13.068Z,2.07
2019-04-26T15:48:02.310Z,5.57
2019-04-26T15:50:40.986Z,7.77
2019-04-26T15:53:14.650Z,3.50
2019-04-26T15:55:46.077Z,3.03
2019-04-26T15:58:17.700Z,7.80
2019-04-26T16:00:49.330Z,2.17
2019-04-26T16:03:22.664Z,3.20
2019-04-26T16:05:54.520Z,4.90
2019-04-26T16:08:26.230Z,2.77
2019-04-26T16:10:57.814Z,2.73
2019-04-26T16:13:29.551Z,2.97
2019-04-26T16:16:02.061Z,2.60
2019-04-26T16:18:34.703Z,4.90
2019-04-26T16:21:06.350Z,5.00
2019-04-26T16:23:41.120Z,3.67
2019-04-26T16:26:12.874Z,8.50
2019-04-26T16:29:06.542Z,6.83
2019-04-26T16:31:47.037Z,4.67
2019-04-26T16:34:19.688Z,5.50
2019-04-26T16:36:52.595Z,4.30
2019-04-26T16:39:28.420Z,3.70
2019-04-26T16:41:59.320Z,8.13
2019-04-26T16:44:33.311Z,4.40
2019-04-26T16:47:05.936Z,5.27
2019-04-26T16:49:41.984Z,3.63
2019-04-26T16:52:13.584Z,3.40
2019-04-26T16:54:44.772Z,3.20
2019-04-26T16:57:16.468Z,2.70
2019-04-26T16:59:54.335Z,3.10
2019-04-26T17:02:26.497Z,2.90
2019-04-26T17:04:54.884Z,3.33
2019-04-26T17:07:27.289Z,4.87
2019-04-26T17:10:00.061Z,7.03
2019-04-26T17:12:33.139Z,8.77
2019-04-26T17:15:05.661Z,4.90
2019-04-26T17:17:37.365Z,3.90
2019-04-26T17:20:10.795Z,8.00
2019-04-26T17:23:07.748Z,4.63
2019-04-26T17:25:55.201Z,5.60
2019-04-26T17:28:29.853Z,18.50
2019-04-26T17:31:02.139Z,7.30
2019-04-26T17:33:33.964Z,5.87
2019-04-26T17:36:06.722Z,5.43
2019-04-26T17:38:39.310Z,3.57
2019-04-26T17:41:13.658Z,3.13
2019-04-26T17:43:47.544Z,3.50
2019-04-26T17:46:20.017Z,3.70
2019-04-26T17:48:52.101Z,3.20
2019-04-26T17:51:23.843Z,4.67
2019-04-26T17:54:18.916Z,4.10
2019-04-26T17:56:31.414Z,4.00
2019-04-26T17:59:03.137Z,4.27
2019-04-26T18:01:46.814Z,3.97
2019-04-26T18:04:10.890Z,6.57
2019-04-26T18:06:45.374Z,4.50
2019-04-26T18:09:38.040Z,3.60
2019-04-26T18:11:50.981Z,3.17
2019-04-26T18:14:29.565Z,3.40
2019-04-26T18:17:05.807Z,6.87
2019-04-26T18:19:47.282Z,3.90
2019-04-26T18:22:40.613Z,5.23
2019-04-26T18:25:13.097Z,3.90
2019-04-26T18:27:45.821Z,3.60
2019-04-26T18:30:17.946Z,4.00
2019-04-26T18:32:49.738Z,3.97
2019-04-26T18:35:21.407Z,4.50
2019-04-26T18:37:53.713Z,4.30
2019-04-26T18:40:25.435Z,4.53
2019-04-26T18:42:57.045Z,4.80
2019-04-26T18:45:30.109Z,4.47
2019-04-26T18:48:04.631Z,5.30
2019-04-26T18:50:36.528Z,10.03
2019-04-26T18:53:25.996Z,7.30
2019-04-26T18:55:59.297Z,5.00
2019-04-26T18:58:34.792Z,4.03
2019-04-26T19:01:05.597Z,5.50
2019-04-26T19:03:37.314Z,4.40
2019-04-26T19:06:09.227Z,8.60
2019-04-26T19:08:47.680Z,6.60
2019-04-26T19:11:14.481Z,6.97
2019-04-26T19:13:59.133Z,7.37
2019-04-26T19:16:59.198Z,9.03
2019-04-26T19:19:49.376Z,7.83
2019-04-26T19:22:22.569Z,6.33
2019-04-26T19:24:57.443Z,5.13
2019-04-26T19:27:27.779Z,5.70
2019-04-26T19:30:04.301Z,5.13
2019-04-26T19:32:35.455Z,5.27
2019-04-26T19:35:11.917Z,5.83
2019-04-26T19:37:40.294Z,5.27
2019-04-26T19:40:12.384Z,7.50
2019-04-26T19:42:44.366Z,12.53
2019-04-26T19:45:27.867Z,8.50
2019-04-26T19:48:12.431Z,7.60
2019-04-26T19:51:02.075Z,7.27
2019-04-26T19:53:40.140Z,7.27
2019-04-26T19:56:24.883Z,7.30
2019-04-26T19:58:57.373Z,8.60
2019-04-26T20:01:28.242Z,7.10
2019-04-26T20:03:59.848Z,5.80
2019-04-26T20:06:32.264Z,7.73
2019-04-26T20:09:05.704Z,9.87
2019-04-26T20:11:37.415Z,14.17
2019-04-26T20:14:09.164Z,11.90
2019-04-26T20:16:43.346Z,9.03
2019-04-26T20:19:17.759Z,8.63
2019-04-26T20:21:49.738Z,8.23
2019-04-26T20:24:21.539Z,11.60
2019-04-26T20:26:53.227Z,9.50
2019-04-26T20:29:24.851Z,10.03
2019-04-26T20:32:24.030Z,8.13
2019-04-26T20:35:14.686Z,8.43
2019-04-26T20:37:46.361Z,7.40
2019-04-26T20:40:22.499Z,8.40
2019-04-26T20:42:57.287Z,6.60
2019-04-26T20:45:38.390Z,8.13
2019-04-26T20:47:58.722Z,8.97
2019-04-26T20:50:34.477Z,6.00
2019-04-26T20:53:03.685Z,6.80
2019-04-26T20:55:35.286Z,6.40
2019-04-26T20:58:08.646Z,6.97
2019-04-26T21:00:53.515Z,6.20
2019-04-26T21:03:23.125Z,5.60
2019-04-26T21:05:52.803Z,6.30
2019-04-26T21:08:25.687Z,5.00
2019-04-26T21:10:56.039Z,5.30
2019-04-26T21:13:30.753Z,5.30
2019-04-26T21:16:03.570Z,5.20
2019-04-26T21:18:40.238Z,6.90
2019-04-26T21:21:10.481Z,7.10
2019-04-26T21:23:42.259Z,5.87
2019-04-26T21:26:23.939Z,5.13
2019-04-26T21:29:20.295Z,5.43
2019-04-26T21:32:08.487Z,6.10
2019-04-26T21:34:40.653Z,5.97
2019-04-26T21:37:35.850Z,6.50
2019-04-26T21:40:26.162Z,6.20
2019-04-26T21:42:59.606Z,6.00
2019-04-26T21:45:31.214Z,6.60
2019-04-26T21:48:06.801Z,7.70
2019-04-26T21:50:38.976Z,8.37
2019-04-26T21:53:09.372Z,6.93
2019-04-26T21:55:41.044Z,7.30
2019-04-26T21:58:14.177Z,11.00
2019-04-26T22:01:10.952Z,6.67
2019-04-26T22:03:47.525Z,8.93
2019-04-26T22:06:15.378Z,6.80
2019-04-26T22:08:59.299Z,7.27
2019-04-26T22:11:29.246Z,7.37
2019-04-26T22:14:07.886Z,8.93
2019-04-26T22:17:04.654Z,7.97
2019-04-26T22:19:53.482Z,7.30
2019-04-26T22:22:44.378Z,7.63
2019-04-26T22:25:17.105Z,9.00
2019-04-26T22:27:48.692Z,8.33
2019-04-26T22:30:28.298Z,7.97
2019-04-26T22:32:58.848Z,8.03
2019-04-26T22:35:30.505Z,11.17
2019-04-26T22:38:03.665Z,7.53
2019-04-26T22:40:35.412Z,11.57
2019-04-26T22:43:34.795Z,7.40
2019-04-26T22:46:28.871Z,7.90
2019-04-26T22:49:01.321Z,9.87
2019-04-26T22:51:33.526Z,7.30
2019-04-26T22:54:06.367Z,7.70
2019-04-26T22:56:38.429Z,8.23
2019-04-26T22:59:11.248Z,9.07
2019-04-26T23:01:47.085Z,8.23
2019-04-26T23:04:23.610Z,8.63
2019-04-26T23:06:49.779Z,7.30
2019-04-26T23:09:23.199Z,7.90
2019-04-26T23:12:04.480Z,11.00
2019-04-26T23:14:55.073Z,11.30
2019-04-26T23:17:52.290Z,8.53
2019-04-26T23:20:34.293Z,7.83
2019-04-26T23:23:08.537Z,7.83
2019-04-26T23:25:38.866Z,11.30
2019-04-26T23:28:10.447Z,9.60
2019-04-26T23:30:42.482Z,8.40
2019-04-26T23:33:15.797Z,9.40
2019-04-26T23:35:47.802Z,9.40
2019-04-26T23:38:19.441Z,11.00
2019-04-26T23:40:51.049Z,9.90
2019-04-26T23:43:25.557Z,9.00
2019-04-26T23:45:56.054Z,7.60
2019-04-26T23:48:27.604Z,7.90
2019-04-26T23:50:59.816Z,7.53
2019-04-26T23:53:33.653Z,6.97
2019-04-26T23:56:05.796Z,6.60
2019-04-26T23:58:40.250Z,8.13
